createdAt,value
2016-06-23T00:00:01.315Z,91.33
2016-06-23T00:01:01.317Z,91.05
2016-06-23T00:02:00.708Z,91.05
2016-06-23T00:03:01.305Z,90.9
2016-06-23T00:04:00.694Z,90.52
2016-06-23T00:05:01.309Z,90.71
2016-06-23T00:06:01.305Z,91.09
2016-06-23T00:07:00.695Z,91.48
2016-06-23T00:08:00.705Z,91.38
2016-06-23T00:09:01.307Z,91.57
2016-06-23T00:10:00.695Z,91.38
2016-06-23T00:11:01.307Z,91.48
2016-06-23T00:12:01.303Z,91.38
2016-06-23T00:13:00.694Z,91.57
2016-06-23T00:14:01.318Z,91.77
2016-06-23T00:15:00.691Z,92.05
2016-06-23T00:16:01.518Z,91.67
2016-06-23T00:17:00.691Z,91.77
2016-06-23T00:18:00.692Z,91.77
2016-06-23T00:19:00.692Z,91.67
2016-06-23T00:20:01.306Z,91.57
2016-06-23T00:21:01.342Z,91.96
2016-06-23T00:22:00.691Z,92.44
2016-06-23T00:23:00.981Z,92.15
2016-06-23T00:24:02.882Z,92.15
2016-06-23T00:25:01.497Z,92.15
2016-06-23T00:26:00.791Z,92.91
2016-06-23T00:27:01.557Z,92.63
2016-06-23T00:28:01.484Z,92.72
2016-06-23T00:29:01.307Z,92.63
2016-06-23T00:30:01.503Z,92.63
2016-06-23T00:31:00.678Z,92.82
2016-06-23T00:32:01.292Z,92.82
2016-06-23T00:33:02.544Z,93.01
2016-06-23T00:34:01.883Z,92.63
2016-06-23T00:35:01.836Z,93.11
2016-06-23T00:36:00.887Z,93.11
2016-06-23T00:37:01.291Z,92.82
2016-06-23T00:38:00.681Z,92.82
2016-06-23T00:39:01.292Z,92.82
2016-06-23T00:40:00.673Z,93.3
2016-06-23T00:41:00.680Z,93.01
2016-06-23T00:42:00.678Z,93.3
2016-06-23T00:43:00.678Z,93.4
2016-06-23T00:44:01.293Z,93.68
2016-06-23T00:45:00.685Z,93.4
2016-06-23T00:46:00.680Z,93.49
2016-06-23T00:47:00.675Z,93.44
2016-06-23T00:48:00.683Z,93.4
2016-06-23T00:49:00.671Z,93.21
2016-06-23T00:50:00.674Z,93.11
2016-06-23T00:51:00.685Z,93.26
2016-06-23T00:52:01.294Z,93.88
2016-06-23T00:53:01.290Z,94.07
2016-06-23T00:54:01.281Z,93.97
2016-06-23T00:55:01.284Z,93.78
2016-06-23T00:56:01.295Z,93.59
2016-06-23T00:57:01.284Z,93.78
2016-06-23T00:58:01.281Z,94.26
2016-06-23T00:59:00.664Z,94.17
2016-06-23T01:00:01.286Z,94.26
2016-06-23T01:01:01.278Z,94.17
2016-06-23T01:02:00.688Z,94.45
2016-06-23T01:03:00.673Z,94.35
2016-06-23T01:04:01.276Z,94.17
2016-06-23T01:05:01.271Z,94.35
2016-06-23T01:06:00.668Z,94.35
2016-06-23T01:07:01.273Z,94.84
2016-06-23T01:08:01.393Z,94.93
2016-06-23T01:09:01.270Z,94.84
2016-06-23T01:10:01.279Z,94.84
2016-06-23T01:11:01.287Z,94.5
2016-06-23T01:12:01.386Z,94.64
2016-06-23T01:13:00.813Z,94.4
2016-06-23T01:14:01.275Z,94.5
2016-06-23T01:15:01.267Z,94.4
2016-06-23T01:16:01.364Z,94.69
2016-06-23T01:17:00.656Z,94.64
2016-06-23T01:18:00.662Z,95.03
2016-06-23T01:19:00.657Z,94.93
2016-06-23T01:20:00.659Z,95.31
2016-06-23T01:21:00.657Z,94.98
2016-06-23T01:22:01.261Z,95.36
2016-06-23T01:23:00.661Z,95.07
2016-06-23T01:24:01.267Z,94.89
2016-06-23T01:25:00.657Z,95.21
2016-06-23T01:26:01.265Z,95.26
2016-06-23T01:27:01.259Z,94.54
2016-06-23T01:28:01.255Z,95.17
2016-06-23T01:29:01.262Z,95.36
2016-06-23T01:30:01.274Z,95.26
2016-06-23T01:31:00.643Z,95.26
2016-06-23T01:32:01.487Z,95.17
2016-06-23T01:33:00.645Z,95.36
2016-06-23T01:34:00.649Z,94.79
2016-06-23T01:35:00.648Z,95.46
2016-06-23T01:36:01.263Z,95.46
2016-06-23T01:37:00.650Z,95.46
2016-06-23T01:38:01.251Z,95.56
2016-06-23T01:39:01.250Z,95.17
2016-06-23T01:40:01.250Z,95.36
2016-06-23T01:41:01.845Z,95.36
2016-06-23T01:42:02.778Z,94.98
2016-06-23T01:44:01.263Z,94.98
2016-06-23T01:45:02.423Z,95.94
2016-06-23T01:46:01.243Z,95.84
2016-06-23T01:47:01.821Z,96.03
2016-06-23T01:48:01.118Z,95.56
2016-06-23T01:49:01.245Z,95.75
2016-06-23T01:50:00.632Z,95.75
2016-06-23T01:51:03.044Z,95.65
2016-06-23T01:52:02.270Z,95.46
2016-06-23T01:53:02.819Z,95.46
2016-06-23T01:54:01.245Z,95.75
2016-06-23T01:55:00.631Z,95.75
2016-06-23T01:56:01.731Z,95.65
2016-06-23T01:57:00.630Z,95.56
2016-06-23T01:58:01.234Z,95.46
2016-06-23T01:59:00.638Z,95.75
2016-06-23T02:00:00.622Z,96.32
2016-06-23T02:01:00.622Z,96.42
2016-06-23T02:02:00.626Z,96.32
2016-06-23T02:03:01.242Z,96.42
2016-06-23T02:04:00.623Z,96.13
2016-06-23T02:05:00.626Z,96.22
2016-06-23T02:06:00.628Z,96.22
2016-06-23T02:07:01.224Z,96.03
2016-06-23T02:08:01.234Z,96.13
2016-06-23T02:09:00.623Z,96.42
2016-06-23T02:10:01.233Z,96.32
2016-06-23T02:11:00.625Z,96.51
2016-06-23T02:12:01.231Z,96.42
2016-06-23T02:13:00.620Z,96.03
2016-06-23T02:14:00.625Z,96.22
2016-06-23T02:15:01.221Z,96.13
2016-06-23T02:16:00.614Z,96.22
2016-06-23T02:17:00.610Z,95.84
2016-06-23T02:18:00.616Z,96.56
2016-06-23T02:19:01.222Z,96.51
2016-06-23T02:20:01.223Z,96.37
2016-06-23T02:21:01.231Z,96.03
2016-06-23T02:22:00.609Z,96.32
2016-06-23T02:23:01.216Z,96.51
2016-06-23T02:24:00.605Z,96.51
2016-06-23T02:25:00.620Z,96.61
2016-06-23T02:26:01.220Z,96.51
2016-06-23T02:27:01.219Z,96.37
2016-06-23T02:28:00.595Z,96.22
2016-06-23T02:29:00.605Z,96.32
2016-06-23T02:30:00.616Z,96.22
2016-06-23T02:31:01.210Z,96.7
2016-06-23T02:32:00.599Z,96.7
2016-06-23T02:33:00.599Z,96.51
2016-06-23T02:34:00.590Z,96.37
2016-06-23T02:35:00.597Z,96.18
2016-06-23T02:36:00.598Z,97.04
2016-06-23T02:37:01.198Z,97.14
2016-06-23T02:38:01.199Z,97.14
2016-06-23T02:39:00.600Z,97.04
2016-06-23T02:40:00.585Z,96.94
2016-06-23T02:41:01.187Z,96.84
2016-06-23T02:42:00.591Z,96.75
2016-06-23T02:43:00.587Z,96.75
2016-06-23T02:44:00.593Z,96.66
2016-06-23T02:45:00.587Z,96.56
2016-06-23T02:46:01.189Z,96.94
2016-06-23T02:47:01.197Z,97.18
2016-06-23T02:48:01.195Z,97.33
2016-06-23T02:49:01.185Z,97.23
2016-06-23T02:50:00.591Z,97.14
2016-06-23T02:51:00.582Z,97.14
2016-06-23T02:52:01.184Z,97.33
2016-06-23T02:53:00.579Z,97.18
2016-06-23T02:54:01.190Z,97.04
2016-06-23T02:55:01.183Z,96.75
2016-06-23T02:56:00.573Z,97.04
2016-06-23T02:57:00.603Z,97.18
2016-06-23T02:58:00.585Z,96.84
2016-06-23T02:59:01.183Z,96.89
2016-06-23T03:01:01.498Z,96.89
2016-06-23T03:02:00.773Z,97.38
2016-06-23T03:03:02.154Z,97.33
2016-06-23T03:04:00.566Z,97.38
2016-06-23T03:05:01.257Z,97.56
2016-06-23T03:06:00.571Z,97.47
2016-06-23T03:07:00.601Z,97.56
2016-06-23T03:08:01.180Z,97.66
2016-06-23T03:09:01.027Z,97.38
2016-06-23T03:10:02.019Z,97.56
2016-06-23T03:11:00.570Z,97.56
2016-06-23T03:12:02.298Z,97.56
2016-06-23T03:13:01.780Z,97.47
2016-06-23T03:14:01.166Z,97.56
2016-06-23T03:15:00.557Z,97.28
2016-06-23T03:16:01.265Z,97.38
2016-06-23T03:17:01.173Z,97.28
2016-06-23T03:18:01.160Z,97.38
2016-06-23T03:19:01.171Z,97.38
2016-06-23T03:20:00.559Z,97.28
2016-06-23T03:21:01.160Z,97.09
2016-06-23T03:22:00.551Z,97.76
2016-06-23T03:23:01.159Z,97.76
2016-06-23T03:24:01.156Z,97.47
2016-06-23T03:25:00.554Z,97.71
2016-06-23T03:26:00.549Z,98.19
2016-06-23T03:27:00.549Z,97.86
2016-06-23T03:28:00.550Z,97.86
2016-06-23T03:29:00.553Z,98.14
2016-06-23T03:30:00.553Z,98.1
2016-06-23T03:31:00.551Z,97.76
2016-06-23T03:32:00.550Z,97.96
2016-06-23T03:33:00.559Z,97.81
2016-06-23T03:34:01.161Z,97.81
2016-06-23T03:35:00.553Z,97.47
2016-06-23T03:36:00.546Z,97.57
2016-06-23T03:37:01.174Z,97.33
2016-06-23T03:38:01.171Z,96.56
2016-06-23T03:39:00.555Z,96.51
2016-06-23T03:40:00.556Z,95.84
2016-06-23T03:41:01.168Z,95.69
2016-06-23T03:42:00.559Z,94.97
2016-06-23T03:43:00.558Z,94.29
2016-06-23T03:44:00.559Z,93.19
2016-06-23T03:45:00.561Z,92.61
2016-06-23T03:46:01.201Z,91.78
2016-06-23T03:47:01.179Z,91.16
2016-06-23T03:48:00.568Z,89.71
2016-06-23T03:49:01.205Z,89.07
2016-06-23T03:50:00.578Z,88.73
2016-06-23T03:51:01.188Z,87.29
2016-06-23T03:52:00.589Z,86.07
2016-06-23T03:53:00.595Z,85.15
2016-06-23T03:54:00.586Z,84.03
2016-06-23T03:55:00.600Z,82.58
2016-06-23T03:56:01.227Z,81.75
2016-06-23T03:57:01.210Z,80.92
2016-06-23T03:58:01.220Z,79.37
2016-06-23T03:59:01.231Z,78.34
2016-06-23T04:00:01.226Z,77.42
2016-06-23T04:01:01.238Z,76.45
2016-06-23T04:02:01.239Z,75.13
2016-06-23T04:03:00.637Z,74.49
2016-06-23T04:04:00.651Z,73.36
2016-06-23T04:05:00.657Z,72.39
2016-06-23T04:06:00.653Z,71.16
2016-06-23T04:07:01.279Z,69.93
2016-06-23T04:08:00.684Z,69.35
2016-06-23T04:09:01.290Z,68.22
2016-06-23T04:10:00.686Z,67.38
2016-06-23T04:11:00.697Z,66.31
2016-06-23T04:12:01.315Z,65.46
2016-06-23T04:13:01.334Z,64.42
2016-06-23T04:14:00.725Z,63.58
2016-06-23T04:15:00.731Z,62.7
2016-06-23T04:16:00.741Z,61.37
2016-06-23T04:17:01.365Z,60.42
2016-06-23T04:18:01.711Z,59.74
2016-06-23T04:19:02.242Z,58.99
2016-06-23T04:20:01.447Z,58.4
2016-06-23T04:21:01.400Z,57.46
2016-06-23T04:22:00.805Z,56.58
2016-06-23T04:24:01.419Z,55.27
2016-06-23T04:25:01.431Z,54.2
2016-06-23T04:26:00.834Z,53.81
2016-06-23T04:27:00.850Z,53.05
2016-06-23T04:28:01.845Z,52.56
2016-06-23T04:30:03.058Z,51.51
2016-06-23T04:31:00.891Z,50.85
2016-06-23T04:32:00.898Z,49.97
2016-06-23T04:33:01.879Z,49.21
2016-06-23T04:34:00.911Z,48.63
2016-06-23T04:35:00.935Z,48.46
2016-06-23T04:36:00.943Z,47.01
2016-06-23T04:37:00.954Z,46.91
2016-06-23T04:38:01.580Z,46.05
2016-06-23T04:39:01.588Z,45.39
2016-06-23T04:40:00.992Z,44.9
2016-06-23T04:41:01.611Z,44.04
2016-06-23T04:42:01.023Z,43.55
2016-06-23T04:43:01.633Z,42.88
2016-06-23T04:44:01.040Z,42.32
2016-06-23T04:45:01.665Z,41.72
2016-06-23T04:46:01.679Z,40.86
2016-06-23T04:47:01.075Z,40.88
2016-06-23T04:48:01.700Z,40.01
2016-06-23T04:49:01.709Z,39.52
2016-06-23T04:50:01.110Z,39.25
2016-06-23T04:51:01.128Z,38.85
2016-06-23T04:52:01.133Z,38.46
2016-06-23T04:53:01.759Z,37.99
2016-06-23T04:54:01.168Z,37.81
2016-06-23T04:55:01.792Z,37.71
2016-06-23T04:56:01.192Z,36.65
2016-06-23T04:57:01.218Z,36.45
2016-06-23T04:58:01.228Z,36.35
2016-06-23T04:59:01.847Z,35.28
2016-06-23T05:00:01.243Z,35.18
2016-06-23T05:01:01.252Z,35.08
2016-06-23T05:02:01.884Z,34.79
2016-06-23T05:03:01.902Z,33.92
2016-06-23T05:04:01.300Z,33.82
2016-06-23T05:05:01.317Z,33.82
2016-06-23T05:06:01.334Z,33.72
2016-06-23T05:07:01.348Z,33.64
2016-06-23T05:08:01.367Z,33.25
2016-06-23T05:09:01.371Z,32.95
2016-06-23T05:10:01.389Z,32.77
2016-06-23T05:11:01.397Z,31.88
2016-06-23T05:12:01.418Z,32.18
2016-06-23T05:13:02.046Z,31.79
2016-06-23T05:14:02.067Z,31.5
2016-06-23T05:15:02.085Z,30.92
2016-06-23T05:16:01.587Z,30.82
2016-06-23T05:17:02.109Z,30.44
2016-06-23T05:18:02.131Z,30.24
2016-06-23T05:19:02.138Z,29.95
2016-06-23T05:20:02.163Z,30.06
2016-06-23T05:21:01.561Z,29.96
2016-06-23T05:22:02.192Z,29.17
2016-06-23T05:23:01.591Z,29.07
2016-06-23T05:24:02.229Z,28.89
2016-06-23T05:25:01.628Z,28.49
2016-06-23T05:26:03.119Z,28.49
2016-06-23T05:27:02.275Z,28.09
2016-06-23T05:28:01.677Z,28
2016-06-23T05:29:01.694Z,28.08
2016-06-23T05:30:02.312Z,28.09
2016-06-23T05:31:02.336Z,27.7
2016-06-23T05:32:01.756Z,27.11
2016-06-23T05:33:01.780Z,27.5
2016-06-23T05:34:02.399Z,27.02
2016-06-23T05:35:02.414Z,26.82
2016-06-23T05:36:02.413Z,27.32
2016-06-23T05:38:04.338Z,26.74
2016-06-23T05:39:03.001Z,26.34
2016-06-23T05:40:03.777Z,26.04
2016-06-23T05:41:03.667Z,26.26
2016-06-23T05:42:02.730Z,26.35
2016-06-23T05:43:02.546Z,25.66
2016-06-23T05:44:02.553Z,25.56
2016-06-23T05:45:02.579Z,25.76
2016-06-23T05:46:16.865Z,25.37
2016-06-23T05:48:03.354Z,25.18
2016-06-23T05:49:02.073Z,25.29
2016-06-23T05:50:02.924Z,24.58
2016-06-23T05:51:02.843Z,25.08
2016-06-23T05:52:02.105Z,24.78
2016-06-23T05:53:02.967Z,24.99
2016-06-23T05:54:02.126Z,24.79
2016-06-23T05:55:02.150Z,24.49
2016-06-23T05:56:02.173Z,24.69
2016-06-23T05:57:02.800Z,24.49
2016-06-23T05:58:02.810Z,24.49
2016-06-23T05:59:02.841Z,24.69
2016-06-23T06:00:02.862Z,24.4
2016-06-23T06:01:02.258Z,24.69
2016-06-23T06:02:02.274Z,24.3
2016-06-23T06:03:02.902Z,23.7
2016-06-23T06:04:02.308Z,24
2016-06-23T06:05:02.336Z,24
2016-06-23T06:06:02.967Z,24
2016-06-23T06:07:02.365Z,23.8
2016-06-23T06:08:02.398Z,23.7
2016-06-23T06:09:03.019Z,23.8
2016-06-23T06:10:02.422Z,23.81
2016-06-23T06:11:02.445Z,23.61
2016-06-23T06:12:03.073Z,23.52
2016-06-23T06:13:03.089Z,23.12
2016-06-23T06:14:02.500Z,23.41
2016-06-23T06:15:03.157Z,23.02
2016-06-23T06:16:03.246Z,23.32
2016-06-23T06:17:02.564Z,23.32
2016-06-23T06:18:02.577Z,23.33
2016-06-23T06:19:02.607Z,22.93
2016-06-23T06:20:02.617Z,22.83
2016-06-23T06:21:03.249Z,23.23
2016-06-23T06:22:02.659Z,23.13
2016-06-23T06:23:03.284Z,23.03
2016-06-23T06:24:03.297Z,23.23
2016-06-23T06:25:03.324Z,23.24
2016-06-23T06:26:02.740Z,22.93
2016-06-23T06:27:02.751Z,22.84
2016-06-23T06:28:02.773Z,22.84
2016-06-23T06:29:02.793Z,22.74
2016-06-23T06:30:02.811Z,22.84
2016-06-23T06:31:02.836Z,22.64
2016-06-23T06:32:03.459Z,22.44
2016-06-23T06:33:03.484Z,22.64
2016-06-23T06:34:03.496Z,22.55
2016-06-23T06:35:02.905Z,22.05
2016-06-23T06:36:03.534Z,22.66
2016-06-23T06:37:02.956Z,22.75
2016-06-23T06:38:03.590Z,22.14
2016-06-23T06:39:03.601Z,22.44
2016-06-23T06:40:03.622Z,22.36
2016-06-23T06:41:03.633Z,22.34
2016-06-23T06:42:03.662Z,22.44
2016-06-23T06:43:03.688Z,22.25
2016-06-23T06:44:03.701Z,22.34
2016-06-23T06:45:03.116Z,22.44
2016-06-23T06:46:03.735Z,22.14
2016-06-23T06:47:03.749Z,22.34
2016-06-23T06:48:03.166Z,22.05
2016-06-23T06:49:03.836Z,21.75
2016-06-23T06:50:03.205Z,21.96
2016-06-23T06:51:03.832Z,21.75
2016-06-23T06:52:03.251Z,21.66
2016-06-23T06:53:03.272Z,21.56
2016-06-23T06:54:03.286Z,21.66
2016-06-23T06:55:03.314Z,22.06
2016-06-23T06:56:04.802Z,21.56
2016-06-23T06:57:03.957Z,21.36
2016-06-23T06:58:04.094Z,21.57
2016-06-23T06:59:04.985Z,21.67
2016-06-23T07:00:04.022Z,21.57
2016-06-23T07:01:04.046Z,21.16
2016-06-23T07:02:04.058Z,21.27
2016-06-23T07:03:03.469Z,21.27
2016-06-23T07:04:04.110Z,20.97
2016-06-23T07:05:03.522Z,21.16
2016-06-23T07:06:05.106Z,21.16
2016-06-23T07:07:03.551Z,21.16
2016-06-23T07:08:04.844Z,20.76
2016-06-23T07:09:04.220Z,21.16
2016-06-23T07:10:04.331Z,21.16
2016-06-23T07:11:04.042Z,21.25
2016-06-23T07:12:04.258Z,21.15
2016-06-23T07:13:03.670Z,20.76
2016-06-23T07:14:03.705Z,20.95
2016-06-23T07:15:04.344Z,21.24
2016-06-23T07:16:04.459Z,21.44
2016-06-23T07:17:04.383Z,21.53
2016-06-23T07:18:03.782Z,21.43
2016-06-23T07:19:03.811Z,21.73
2016-06-23T07:20:03.842Z,21.43
2016-06-23T07:21:03.871Z,22.42
2016-06-23T07:22:03.868Z,22.51
2016-06-23T07:23:03.887Z,22.31
2016-06-23T07:24:04.509Z,22.3
2016-06-23T07:25:04.543Z,22.49
2016-06-23T07:26:03.941Z,23.07
2016-06-23T07:27:03.977Z,23.37
2016-06-23T07:28:03.988Z,23.18
2016-06-23T07:29:04.608Z,23.26
2016-06-23T07:30:04.031Z,23.26
2016-06-23T07:31:04.655Z,22.97
2016-06-23T07:32:04.678Z,23.46
2016-06-23T07:33:04.084Z,23.26
2016-06-23T07:34:04.719Z,23.06
2016-06-23T07:35:04.749Z,23.44
2016-06-23T07:36:04.757Z,23.44
2016-06-23T07:37:04.176Z,23.15
2016-06-23T07:38:04.796Z,23.44
2016-06-23T07:39:04.811Z,23.44
2016-06-23T07:40:04.846Z,23.06
2016-06-23T07:41:04.247Z,23.06
2016-06-23T07:42:04.279Z,23.06
2016-06-23T07:43:04.905Z,23.15
2016-06-23T07:44:04.930Z,23.46
2016-06-23T07:45:04.952Z,23.75
2016-06-23T07:46:04.352Z,23.75
2016-06-23T07:47:04.384Z,23.85
2016-06-23T07:48:04.992Z,23.06
2016-06-23T07:49:05.034Z,23.65
2016-06-23T07:50:05.048Z,24.32
2016-06-23T07:51:05.053Z,23.83
2016-06-23T07:52:04.535Z,23.72
2016-06-23T07:53:05.105Z,24.4
2016-06-23T07:54:04.512Z,24.38
2016-06-23T07:55:05.148Z,24.48
2016-06-23T07:56:04.550Z,24.87
2016-06-23T07:57:04.679Z,24.77
2016-06-23T07:58:05.201Z,24.28
2016-06-23T07:59:05.216Z,24.38
2016-06-23T08:00:05.243Z,24.57
2016-06-23T08:01:04.648Z,24.66
2016-06-23T08:02:04.665Z,24.97
2016-06-23T08:03:04.699Z,24.57
2016-06-23T08:04:04.710Z,24.97
2016-06-23T08:05:04.723Z,24.87
2016-06-23T08:06:05.368Z,24.87
2016-06-23T08:07:05.379Z,24.77
2016-06-23T08:08:04.781Z,25.08
2016-06-23T08:09:04.803Z,25.08
2016-06-23T08:10:04.827Z,24.98
2016-06-23T08:11:04.838Z,25.27
2016-06-23T08:12:04.868Z,25.37
2016-06-23T08:13:04.886Z,24.77
2016-06-23T08:15:06.398Z,24.76
2016-06-23T08:16:06.377Z,24.37
2016-06-23T08:17:06.123Z,24.46
2016-06-23T08:18:04.986Z,24.45
2016-06-23T08:19:05.556Z,24.76
2016-06-23T08:20:05.025Z,24.55
2016-06-23T08:21:05.647Z,24.75
2016-06-23T08:22:05.080Z,24.37
2016-06-23T08:23:05.703Z,24.46
2016-06-23T08:24:05.902Z,24.56
2016-06-23T08:25:05.500Z,24.27
2016-06-23T08:26:05.647Z,24.27
2016-06-23T08:28:06.311Z,24.28
2016-06-23T08:29:05.194Z,23.69
2016-06-23T08:30:05.896Z,23.59
2016-06-23T08:31:05.230Z,23.77
2016-06-23T08:32:05.881Z,23.68
2016-06-23T08:33:05.884Z,24.17
2016-06-23T08:34:05.286Z,23.77
2016-06-23T08:35:05.916Z,23.28
2016-06-23T08:36:05.938Z,23.38
2016-06-23T08:37:05.350Z,23.38
2016-06-23T08:38:05.986Z,23.38
2016-06-23T08:39:05.389Z,23.66
2016-06-23T08:40:06.025Z,23.76
2016-06-23T08:41:06.040Z,23.85
2016-06-23T08:42:05.446Z,23.95
2016-06-23T08:43:05.462Z,23.55
2016-06-23T08:44:05.487Z,24.13
2016-06-23T08:45:05.961Z,24.33
2016-06-23T08:46:06.131Z,24.13
2016-06-23T08:47:06.151Z,24.43
2016-06-23T08:48:05.565Z,24.82
2016-06-23T08:49:05.601Z,24.53
2016-06-23T08:50:06.229Z,24.43
2016-06-23T08:51:05.623Z,24.62
2016-06-23T08:52:06.254Z,24.41
2016-06-23T08:53:05.660Z,24.99
2016-06-23T08:54:05.690Z,24.6
2016-06-23T08:55:05.703Z,24.62
2016-06-23T08:56:06.342Z,24.81
2016-06-23T08:57:06.351Z,25.01
2016-06-23T08:58:05.783Z,24.81
2016-06-23T08:59:05.775Z,24.9
2016-06-23T09:00:05.828Z,25.09
2016-06-23T09:01:05.822Z,25.18
2016-06-23T09:02:06.441Z,25.48
2016-06-23T09:03:06.466Z,26.15
2016-06-23T09:04:06.487Z,25.76
2016-06-23T09:05:05.886Z,26.62
2016-06-23T09:06:06.515Z,26.72
2016-06-23T09:07:06.539Z,27.08
2016-06-23T09:08:05.936Z,27.97
2016-06-23T09:09:05.961Z,28.06
2016-06-23T09:10:06.589Z,28.83
2016-06-23T09:11:06.601Z,29.11
2016-06-23T09:12:06.615Z,29.5
2016-06-23T09:13:06.634Z,29.88
2016-06-23T09:14:06.039Z,29.58
2016-06-23T09:15:06.659Z,29.97
2016-06-23T09:16:06.762Z,30.16
2016-06-23T09:17:06.065Z,30.16
2016-06-23T09:18:06.079Z,30.54
2016-06-23T09:19:06.706Z,31.13
2016-06-23T09:20:06.716Z,31.8
2016-06-23T09:21:06.126Z,31.7
2016-06-23T09:22:06.746Z,31.78
2016-06-23T09:23:06.154Z,31.88
2016-06-23T09:24:06.782Z,32.07
2016-06-23T09:25:06.791Z,32.17
2016-06-23T09:26:06.178Z,32.35
2016-06-23T09:27:06.195Z,32.55
2016-06-23T09:28:06.210Z,32.94
2016-06-23T09:29:06.837Z,32.82
2016-06-23T09:30:06.229Z,32.82
2016-06-23T09:31:06.855Z,33.02
2016-06-23T09:32:06.863Z,33.12
2016-06-23T09:33:21.147Z,33.5
2016-06-23T09:35:08.060Z,33.79
2016-06-23T09:36:07.062Z,33.59
2016-06-23T09:37:06.754Z,34.28
2016-06-23T09:38:07.029Z,34.77
2016-06-23T09:39:06.957Z,35.06
2016-06-23T09:40:06.966Z,35.35
2016-06-23T09:42:07.574Z,35.63
2016-06-23T09:43:07.442Z,36.11
2016-06-23T09:44:06.983Z,36.11
2016-06-23T09:45:06.390Z,35.53
2016-06-23T09:46:07.243Z,35.72
2016-06-23T09:47:07.878Z,35.72
2016-06-23T09:48:06.410Z,36.11
2016-06-23T09:49:07.137Z,36.21
2016-06-23T09:50:07.035Z,36.31
2016-06-23T09:51:06.441Z,36.11
2016-06-23T09:52:07.065Z,36
2016-06-23T09:53:06.463Z,36.41
2016-06-23T09:54:07.091Z,36.21
2016-06-23T09:55:07.080Z,36.21
2016-06-23T09:56:07.091Z,36.8
2016-06-23T09:57:06.499Z,36.11
2016-06-23T09:58:06.505Z,36.6
2016-06-23T09:59:07.121Z,36.51
2016-06-23T10:00:06.519Z,36.51
2016-06-23T10:01:07.139Z,36.6
2016-06-23T10:02:07.170Z,36.49
2016-06-23T10:03:07.173Z,36.9
2016-06-23T10:04:07.171Z,36.98
2016-06-23T10:05:06.577Z,36.78
2016-06-23T10:06:07.188Z,36.78
2016-06-23T10:07:06.589Z,36.98
2016-06-23T10:08:07.219Z,36.68
2016-06-23T10:09:07.215Z,36.49
2016-06-23T10:10:06.620Z,36.41
2016-06-23T10:11:07.244Z,36.39
2016-06-23T10:12:07.250Z,36.29
2016-06-23T10:13:07.255Z,36.29
2016-06-23T10:14:06.645Z,36.88
2016-06-23T10:15:06.670Z,36.58
2016-06-23T10:16:07.374Z,36.49
2016-06-23T10:17:07.289Z,36.58
2016-06-23T10:18:06.716Z,36.7
2016-06-23T10:19:06.692Z,36.8
2016-06-23T10:20:07.320Z,36.8
2016-06-23T10:21:07.327Z,36.8
2016-06-23T10:22:06.734Z,36.41
2016-06-23T10:23:07.349Z,36.31
2016-06-23T10:24:07.348Z,36.31
2016-06-23T10:25:07.378Z,36.6
2016-06-23T10:26:07.413Z,36.41
2016-06-23T10:27:07.378Z,36.9
2016-06-23T10:28:07.378Z,36.31
2016-06-23T10:29:07.424Z,36.21
2016-06-23T10:30:06.790Z,36.02
2016-06-23T10:31:07.415Z,36.21
2016-06-23T10:32:07.414Z,36.11
2016-06-23T10:33:07.431Z,36
2016-06-23T10:34:06.838Z,36.41
2016-06-23T10:35:07.450Z,36.02
2016-06-23T10:36:07.464Z,36.02
2016-06-23T10:37:06.853Z,36.21
2016-06-23T10:38:07.487Z,36.31
2016-06-23T10:39:07.515Z,36.02
2016-06-23T10:40:07.494Z,36.41
2016-06-23T10:41:07.502Z,36.51
2016-06-23T10:42:07.515Z,36.7
2016-06-23T10:43:07.516Z,36.31
2016-06-23T10:44:07.539Z,36.31
2016-06-23T10:45:07.543Z,36.11
2016-06-23T10:46:06.931Z,36.31
2016-06-23T10:47:06.942Z,36.31
2016-06-23T10:48:07.555Z,36.11
2016-06-23T10:49:06.971Z,36.41
2016-06-23T10:50:06.970Z,35.94
2016-06-23T10:51:11.701Z,35.74
2016-06-23T10:53:09.639Z,35.84
2016-06-23T10:54:07.621Z,35.64
2016-06-23T10:55:08.888Z,36.04
2016-06-23T10:56:07.235Z,36.23
2016-06-23T10:57:07.438Z,36.23
2016-06-23T10:58:07.730Z,36.33
2016-06-23T10:59:07.662Z,36.13
2016-06-23T11:00:08.619Z,35.84
2016-06-23T11:01:07.774Z,36.23
2016-06-23T11:02:07.581Z,35.94
2016-06-23T11:03:08.273Z,36.33
2016-06-23T11:04:07.728Z,36.23
2016-06-23T11:05:08.360Z,36.33
2016-06-23T11:06:07.726Z,36.13
2016-06-23T11:07:07.742Z,35.45
2016-06-23T11:08:07.736Z,35.25
2016-06-23T11:09:07.137Z,35.16
2016-06-23T11:10:07.149Z,35.25
2016-06-23T11:11:07.771Z,35.06
2016-06-23T11:12:07.171Z,34.67
2016-06-23T11:13:07.790Z,34.86
2016-06-23T11:14:07.794Z,34.96
2016-06-23T11:15:07.804Z,34.96
2016-06-23T11:16:07.807Z,34.86
2016-06-23T11:17:07.826Z,35.35
2016-06-23T11:18:07.225Z,35.35
2016-06-23T11:19:07.236Z,35.25
2016-06-23T11:20:07.239Z,35.35
2016-06-23T11:21:07.861Z,35.06
2016-06-23T11:22:07.866Z,35.84
2016-06-23T11:23:07.278Z,35.74
2016-06-23T11:24:07.270Z,35.84
2016-06-23T11:25:07.285Z,35.74
2016-06-23T11:26:07.291Z,35.64
2016-06-23T11:27:07.907Z,35.64
2016-06-23T11:28:07.930Z,35.94
2016-06-23T11:29:07.930Z,36.23
2016-06-23T11:30:07.328Z,36.43
2016-06-23T11:31:07.951Z,36.04
2016-06-23T11:32:07.343Z,36.13
2016-06-23T11:33:07.963Z,36.04
2016-06-23T11:34:07.971Z,35.84
2016-06-23T11:35:07.403Z,35.66
2016-06-23T11:36:07.997Z,35.07
2016-06-23T11:37:08.006Z,35.35
2016-06-23T11:38:07.398Z,35.06
2016-06-23T11:39:07.414Z,35.94
2016-06-23T11:40:07.423Z,36.04
2016-06-23T11:41:08.035Z,35.84
2016-06-23T11:42:07.432Z,35.74
2016-06-23T11:43:07.452Z,35.06
2016-06-23T11:44:08.061Z,35.07
2016-06-23T11:45:08.091Z,35.16
2016-06-23T11:46:07.471Z,35.36
2016-06-23T11:47:08.095Z,35.27
2016-06-23T11:48:07.483Z,35.27
2016-06-23T11:49:08.110Z,35.07
2016-06-23T11:50:07.510Z,35.17
2016-06-23T11:51:08.123Z,35.46
2016-06-23T11:52:08.130Z,35.07
2016-06-23T11:53:07.530Z,35.36
2016-06-23T11:54:08.159Z,35.75
2016-06-23T11:55:07.546Z,36.05
2016-06-23T11:56:08.174Z,36.24
2016-06-23T11:57:07.591Z,35.95
2016-06-23T11:58:08.179Z,35.75
2016-06-23T11:59:08.195Z,35.66
2016-06-23T12:00:08.226Z,35.66
2016-06-23T12:01:07.607Z,35.66
2016-06-23T12:02:07.616Z,35.95
2016-06-23T12:03:07.615Z,36.05
2016-06-23T12:04:08.244Z,36.15
2016-06-23T12:05:08.249Z,35.95
2016-06-23T12:06:08.269Z,36.05
2016-06-23T12:07:07.661Z,35.66
2016-06-23T12:08:07.669Z,36.05
2016-06-23T12:09:22.551Z,36.05
2016-06-23T12:10:07.844Z,36.15
2016-06-23T12:11:08.350Z,35.85
2016-06-23T12:13:08.282Z,35.75
2016-06-23T12:14:09.191Z,35.36
2016-06-23T12:15:08.326Z,35.27
2016-06-23T12:16:07.838Z,35.27
2016-06-23T12:17:08.355Z,35.17
2016-06-23T12:18:07.757Z,35.07
2016-06-23T12:19:08.961Z,34.97
2016-06-23T12:20:07.767Z,34.78
2016-06-23T12:21:09.714Z,34.78
2016-06-23T12:22:08.987Z,34.97
2016-06-23T12:23:08.418Z,34.88
2016-06-23T12:24:08.421Z,34.78
2016-06-23T12:25:07.823Z,34.58
2016-06-23T12:26:07.930Z,34.78
2016-06-23T12:27:08.447Z,34.88
2016-06-23T12:28:07.848Z,34.88
2016-06-23T12:29:07.862Z,34.89
2016-06-23T12:30:08.468Z,34.8
2016-06-23T12:31:08.483Z,34.89
2016-06-23T12:32:08.489Z,34.99
2016-06-23T12:33:08.497Z,34.99
2016-06-23T12:34:07.909Z,34.8
2016-06-23T12:35:07.916Z,34.99
2016-06-23T12:36:07.923Z,34.97
2016-06-23T12:37:08.550Z,34.89
2016-06-23T12:38:08.574Z,34.89
2016-06-23T12:39:08.554Z,34.89
2016-06-23T12:40:07.952Z,34.89
2016-06-23T12:41:08.572Z,34.6
2016-06-23T12:42:08.584Z,34.5
2016-06-23T12:43:08.593Z,34.5
2016-06-23T12:44:07.991Z,34.5
2016-06-23T12:45:08.610Z,34.6
2016-06-23T12:46:08.015Z,34.21
2016-06-23T12:47:08.638Z,34.31
2016-06-23T12:48:08.101Z,33.62
2016-06-23T12:49:08.645Z,33.62
2016-06-23T12:50:08.055Z,33.82
2016-06-23T12:51:08.048Z,33.43
2016-06-23T12:52:08.061Z,33.53
2016-06-23T12:53:08.676Z,33.82
2016-06-23T12:54:08.075Z,33.62
2016-06-23T12:55:08.087Z,33.33
2016-06-23T12:56:08.706Z,33.23
2016-06-23T12:57:08.106Z,33.33
2016-06-23T12:58:08.726Z,32.94
2016-06-23T12:59:08.122Z,32.75
2016-06-23T13:00:08.750Z,32.45
2016-06-23T13:01:08.757Z,32.55
2016-06-23T13:02:08.147Z,32.84
2016-06-23T13:03:08.164Z,32.55
2016-06-23T13:04:08.775Z,32.45
2016-06-23T13:05:08.797Z,32.26
2016-06-23T13:06:08.195Z,32.26